Airfield :
LOGIN :

Register | Disclaimer

   EN    FR    IT 

 










Legend :    VFR   Marginal VFR   IFR   Intensive IFR   Very Intensive IFR
Visi :
Ceiling :
>= 8 km
>= 3000ft
5 to 8 km
1000 to 3000 ft
1500m to 5 km
500 to 1000 ft
800 to 1500m
200 to 500 ft
< 800m
< 200 ft
Symbols :   Thunderstorms  Fog  Heavy snow  Heavy precipitations  Wind > 20 kt
SIGMETs :     Misc.  Thunderstorms  Icing  Turbulence  Mountain Waves  Volcanic Ashes







- Airport Elevation : 1017 ft
- Download approach charts


LFSL - Brive Souillac

CURRENT METAR :
  • 230630Z AUTO 12006KT 9999 -RA NCD 13/10 Q0997 TEMPO SCT040TCU BKN070

EXPIRED METARs :
  • 230600Z AUTO 13007KT 9999 NCD 13/09 Q0997 TEMPO SCT040TCU BKN070
  • 230530Z AUTO 11007KT 9999 NCD 13/09 Q0997 TEMPO SCT040TCU BKN070
  • 230500Z AUTO 10008KT 9999 NCD 13/08 Q0997 TEMPO SCT030TCU BKN070
  • 230430Z AUTO 12006KT 9999 NCD 13/08 Q0997 TEMPO SCT030TCU BKN070
  • 230400Z AUTO 14004KT 9999 NCD 13/07 Q0997 TEMPO SCT030TCU BKN070

TAF TAF LFSL
Valid from the 23 at 06:00 until the 23 at 15:00 UTC


230500Z 2306/2315 12008KT CAVOK
TEMPO 2306/2315 SCT040TCU BKN070
TEMPO 2309/2315 14015G25KT
No reported NOTAMs for that airfield.



MET'MAP, your aeronautical weather chart ! - Copyright ORBIFLY December 2007 - Disclaimer

ORBIFLY MET'MAP TEAM :

Programming & Development : Alexandra Zaïnal
Concept & Development : Baudouin d'Aumeries
Co-Development & Prog : Marc-Olivier Méhu
Technical & hardware support : Manuel Goepfert

Contact : metmap@orbifly.com




SOURCES & CREDITS :

   NOAA